createdAt,value
2022-11-09T00:00:27.459Z,13.94
2022-11-09T00:01:27.408Z,13.91
2022-11-09T00:02:27.350Z,13.88
2022-11-09T00:03:27.297Z,13.88
2022-11-09T00:04:27.240Z,13.92
2022-11-09T00:05:27.187Z,13.84
2022-11-09T00:06:27.207Z,13.92
2022-11-09T00:07:27.078Z,13.92
2022-11-09T00:08:27.014Z,13.87
2022-11-09T00:09:27.010Z,13.91
2022-11-09T00:10:26.904Z,13.92
2022-11-09T00:11:26.850Z,13.92
2022-11-09T00:12:26.793Z,13.92
2022-11-09T00:13:26.739Z,13.87
2022-11-09T00:14:26.684Z,13.89
2022-11-09T00:15:26.627Z,13.92
2022-11-09T00:16:26.572Z,13.89
2022-11-09T00:17:26.514Z,13.83
2022-11-09T00:18:26.459Z,13.89
2022-11-09T00:19:26.404Z,13.88
2022-11-09T00:20:26.357Z,13.84
2022-11-09T00:21:26.297Z,13.92
2022-11-09T00:22:26.236Z,13.83
2022-11-09T00:23:26.187Z,13.91
2022-11-09T00:24:26.124Z,13.91
2022-11-09T00:25:26.073Z,13.91
2022-11-09T00:26:26.017Z,13.89
2022-11-09T00:27:25.959Z,13.88
2022-11-09T00:28:25.908Z,13.87
2022-11-09T00:29:25.851Z,13.87
2022-11-09T00:30:25.792Z,13.91
2022-11-09T00:31:25.736Z,13.87
2022-11-09T00:32:27.996Z,13.87
2022-11-09T00:33:25.631Z,13.83
2022-11-09T00:34:25.569Z,13.87
2022-11-09T00:35:25.516Z,13.88
2022-11-09T00:36:25.458Z,13.92
2022-11-09T00:37:25.430Z,13.84
2022-11-09T00:38:25.347Z,13.87
2022-11-09T00:39:25.297Z,13.84
2022-11-09T00:40:25.236Z,13.79
2022-11-09T00:41:25.182Z,13.83
2022-11-09T00:42:25.124Z,13.91
2022-11-09T00:43:25.072Z,13.95
2022-11-09T00:44:25.018Z,13.88
2022-11-09T00:45:24.958Z,13.87
2022-11-09T00:46:24.904Z,13.80
2022-11-09T00:47:24.845Z,13.84
2022-11-09T00:48:24.793Z,13.91
2022-11-09T00:49:24.735Z,13.84
2022-11-09T00:50:24.685Z,13.91
2022-11-09T00:51:24.624Z,13.91
2022-11-09T00:52:24.570Z,13.95
2022-11-09T00:53:24.513Z,13.88
2022-11-09T00:54:24.470Z,13.89
2022-11-09T00:55:24.458Z,13.80
2022-11-09T00:56:24.350Z,13.81
2022-11-09T00:57:24.294Z,13.76
2022-11-09T00:58:24.235Z,13.92
2022-11-09T00:59:24.178Z,13.81
2022-11-09T01:00:24.152Z,13.84
2022-11-09T01:01:24.241Z,13.77
2022-11-09T01:02:24.016Z,13.81
2022-11-09T01:03:23.957Z,13.84
2022-11-09T01:04:23.901Z,13.91
2022-11-09T01:05:23.846Z,13.94
2022-11-09T01:06:23.793Z,13.91
2022-11-09T01:07:23.736Z,13.91
2022-11-09T01:08:23.680Z,13.91
2022-11-09T01:09:23.624Z,13.84
2022-11-09T01:10:23.570Z,13.80
2022-11-09T01:11:23.582Z,13.84
2022-11-09T01:12:23.457Z,13.83
2022-11-09T01:13:23.400Z,13.84
2022-11-09T01:14:23.347Z,13.83
2022-11-09T01:15:23.288Z,13.81
2022-11-09T01:16:23.237Z,13.92
2022-11-09T01:17:23.178Z,13.79
2022-11-09T01:18:23.124Z,13.81
2022-11-09T01:19:23.068Z,13.89
2022-11-09T01:20:23.021Z,13.81
2022-11-09T01:21:22.955Z,13.80
2022-11-09T01:22:22.900Z,13.87
2022-11-09T01:23:22.845Z,13.89
2022-11-09T01:24:22.790Z,13.95
2022-11-09T01:25:22.732Z,13.88
2022-11-09T01:26:22.679Z,13.80
2022-11-09T01:27:22.627Z,13.88
2022-11-09T01:28:22.570Z,13.84
2022-11-09T01:29:22.515Z,13.80
2022-11-09T01:30:22.464Z,13.88
2022-11-09T01:31:22.400Z,13.89
2022-11-09T01:32:22.344Z,13.77
2022-11-09T01:33:22.341Z,13.79
2022-11-09T01:34:22.234Z,13.87
2022-11-09T01:35:22.176Z,13.81
2022-11-09T01:36:22.124Z,13.87
2022-11-09T01:37:22.068Z,13.81
2022-11-09T01:38:22.012Z,13.83
2022-11-09T01:39:21.954Z,13.87
2022-11-09T01:40:21.899Z,13.81
2022-11-09T01:41:21.845Z,13.83
2022-11-09T01:42:21.789Z,13.88
2022-11-09T01:43:22.195Z,13.91
2022-11-09T01:44:21.679Z,13.84
2022-11-09T01:45:21.628Z,13.77
2022-11-09T01:46:21.565Z,13.81
2022-11-09T01:47:21.509Z,13.84
2022-11-09T01:48:21.454Z,13.87
2022-11-09T01:49:21.397Z,13.81
2022-11-09T01:50:21.346Z,13.87
2022-11-09T01:51:21.285Z,13.87
2022-11-09T01:52:21.233Z,13.88
2022-11-09T01:53:21.567Z,13.91
2022-11-09T01:54:21.122Z,13.88
2022-11-09T01:55:21.062Z,13.84
2022-11-09T01:56:21.009Z,13.87
2022-11-09T01:57:20.955Z,13.87
2022-11-09T01:58:20.898Z,13.83
2022-11-09T01:59:20.848Z,13.81
2022-11-09T02:00:20.794Z,13.84
2022-11-09T02:01:20.796Z,13.81
2022-11-09T02:02:20.683Z,13.87
2022-11-09T02:03:20.912Z,13.88
2022-11-09T02:04:20.567Z,13.89
2022-11-09T02:05:20.508Z,13.83
2022-11-09T02:06:20.453Z,13.88
2022-11-09T02:07:20.395Z,13.84
2022-11-09T02:08:20.344Z,13.87
2022-11-09T02:09:20.284Z,13.83
2022-11-09T02:10:20.230Z,13.88
2022-11-09T02:11:20.172Z,13.87
2022-11-09T02:12:20.119Z,13.83
2022-11-09T02:13:20.402Z,13.84
2022-11-09T02:14:20.006Z,13.91
2022-11-09T02:15:19.959Z,13.83
2022-11-09T02:16:19.906Z,13.87
2022-11-09T02:17:19.842Z,13.81
2022-11-09T02:18:19.797Z,13.84
2022-11-09T02:19:19.729Z,13.80
2022-11-09T02:20:19.674Z,13.87
2022-11-09T02:21:19.620Z,13.87
2022-11-09T02:22:19.565Z,13.81
2022-11-09T02:23:19.807Z,13.87
2022-11-09T02:24:19.469Z,13.89
2022-11-09T02:25:19.392Z,13.84
2022-11-09T02:26:20.064Z,13.77
2022-11-09T02:27:19.286Z,13.81
2022-11-09T02:28:19.226Z,13.84
2022-11-09T02:29:19.171Z,13.83
2022-11-09T02:30:19.116Z,13.83
2022-11-09T02:31:19.062Z,13.84
2022-11-09T02:32:19.010Z,13.84
2022-11-09T02:33:19.189Z,13.87
2022-11-09T02:34:18.894Z,13.89
2022-11-09T02:35:18.849Z,13.84
2022-11-09T02:36:18.784Z,13.87
2022-11-09T02:37:18.726Z,13.84
2022-11-09T02:38:18.670Z,13.89
2022-11-09T02:39:18.613Z,13.84
2022-11-09T02:40:18.561Z,13.79
2022-11-09T02:41:18.500Z,13.81
2022-11-09T02:42:21.430Z,13.87
2022-11-09T02:43:18.814Z,13.87
2022-11-09T02:44:18.339Z,13.77
2022-11-09T02:45:18.280Z,13.87
2022-11-09T02:46:18.225Z,13.87
2022-11-09T02:47:18.173Z,13.87
2022-11-09T02:48:18.113Z,13.91
2022-11-09T02:49:18.061Z,13.83
2022-11-09T02:50:18.001Z,13.77
2022-11-09T02:51:17.944Z,13.87
2022-11-09T02:52:17.890Z,13.79
2022-11-09T02:53:18.337Z,13.81
2022-11-09T02:54:17.778Z,13.87
2022-11-09T02:55:17.721Z,13.80
2022-11-09T02:56:17.667Z,13.88
2022-11-09T02:57:17.614Z,13.83
2022-11-09T02:58:17.557Z,13.87
2022-11-09T02:59:17.499Z,13.89
2022-11-09T03:00:17.446Z,13.81
2022-11-09T03:01:17.427Z,13.80
2022-11-09T03:02:17.417Z,13.83
2022-11-09T03:03:17.518Z,13.91
2022-11-09T03:04:17.224Z,13.89
2022-11-09T03:05:17.164Z,13.88
2022-11-09T03:06:17.112Z,13.89
2022-11-09T03:07:17.100Z,13.87
2022-11-09T03:08:17.000Z,13.89
2022-11-09T03:09:16.942Z,13.91
2022-11-09T03:10:16.888Z,13.81
2022-11-09T03:11:16.841Z,13.84
2022-11-09T03:12:16.778Z,13.91
2022-11-09T03:13:16.937Z,13.87
2022-11-09T03:14:16.666Z,13.91
2022-11-09T03:15:16.607Z,13.92
2022-11-09T03:16:16.553Z,13.83
2022-11-09T03:17:17.073Z,13.89
2022-11-09T03:18:16.449Z,13.88
2022-11-09T03:19:18.098Z,13.81
2022-11-09T03:20:16.332Z,13.81
2022-11-09T03:21:16.273Z,13.83
2022-11-09T03:22:16.221Z,13.89
2022-11-09T03:23:16.240Z,13.87
2022-11-09T03:24:16.111Z,13.88
2022-11-09T03:25:16.056Z,13.89
2022-11-09T03:26:15.997Z,13.84
2022-11-09T03:27:15.941Z,13.87
2022-11-09T03:28:15.886Z,13.89
2022-11-09T03:29:15.828Z,13.84
2022-11-09T03:30:15.779Z,13.89
2022-11-09T03:31:15.719Z,13.80
2022-11-09T03:32:15.664Z,13.87
2022-11-09T03:33:15.632Z,13.89
2022-11-09T03:34:15.552Z,13.84
2022-11-09T03:35:15.501Z,13.81
2022-11-09T03:36:15.452Z,13.89
2022-11-09T03:37:15.431Z,13.84
2022-11-09T03:38:15.328Z,13.84
2022-11-09T03:39:15.273Z,13.83
2022-11-09T03:40:15.225Z,13.88
2022-11-09T03:41:15.162Z,13.74
2022-11-09T03:42:15.110Z,13.77
2022-11-09T03:43:15.049Z,13.83
2022-11-09T03:44:14.996Z,13.87
2022-11-09T03:45:14.939Z,13.84
2022-11-09T03:46:14.885Z,13.84
2022-11-09T03:47:14.831Z,13.91
2022-11-09T03:48:14.776Z,13.84
2022-11-09T03:49:14.716Z,13.87
2022-11-09T03:50:14.663Z,13.84
2022-11-09T03:51:14.707Z,13.87
2022-11-09T03:52:14.549Z,13.87
2022-11-09T03:53:14.495Z,13.87
2022-11-09T03:54:14.444Z,13.77
2022-11-09T03:55:14.385Z,13.81
2022-11-09T03:56:14.331Z,13.79
2022-11-09T03:57:14.271Z,13.89
2022-11-09T03:58:14.217Z,13.81
2022-11-09T03:59:14.164Z,13.83
2022-11-09T04:00:14.105Z,13.88
2022-11-09T04:01:14.131Z,13.83
2022-11-09T04:02:13.994Z,13.84
2022-11-09T04:03:13.935Z,13.83
2022-11-09T04:04:13.883Z,13.83
2022-11-09T04:05:13.825Z,13.87
2022-11-09T04:06:13.775Z,13.87
2022-11-09T04:07:13.763Z,13.79
2022-11-09T04:08:13.660Z,13.87
2022-11-09T04:09:13.601Z,13.87
2022-11-09T04:10:13.548Z,13.91
2022-11-09T04:11:13.600Z,13.89
2022-11-09T04:12:13.436Z,13.87
2022-11-09T04:13:13.380Z,13.88
2022-11-09T04:14:13.417Z,13.84
2022-11-09T04:15:13.273Z,13.83
2022-11-09T04:16:13.217Z,13.89
2022-11-09T04:17:13.157Z,13.88
2022-11-09T04:18:13.107Z,13.88
2022-11-09T04:19:13.044Z,13.81
2022-11-09T04:20:12.993Z,13.89
2022-11-09T04:21:12.936Z,13.87
2022-11-09T04:22:12.880Z,13.79
2022-11-09T04:23:12.828Z,13.84
2022-11-09T04:24:12.769Z,13.89
2022-11-09T04:25:12.713Z,13.88
2022-11-09T04:26:12.658Z,13.87
2022-11-09T04:27:12.600Z,13.87
2022-11-09T04:28:12.546Z,13.88
2022-11-09T04:29:12.489Z,13.87
2022-11-09T04:30:12.438Z,13.84
2022-11-09T04:31:12.379Z,13.83
2022-11-09T04:32:12.323Z,13.83
2022-11-09T04:33:12.271Z,13.79
2022-11-09T04:34:12.213Z,13.84
2022-11-09T04:35:12.156Z,13.87
2022-11-09T04:36:12.102Z,13.89
2022-11-09T04:37:12.047Z,13.81
2022-11-09T04:38:11.990Z,13.81
2022-11-09T04:39:11.936Z,13.80
2022-11-09T04:40:11.877Z,13.83
2022-11-09T04:41:11.823Z,13.87
2022-11-09T04:42:11.766Z,13.83
2022-11-09T04:43:11.710Z,13.80
2022-11-09T04:44:11.654Z,13.81
2022-11-09T04:45:11.600Z,13.91
2022-11-09T04:46:11.544Z,13.80
2022-11-09T04:47:11.488Z,13.89
2022-11-09T04:48:11.431Z,13.80
2022-11-09T04:49:11.378Z,13.81
2022-11-09T04:50:11.324Z,13.87
2022-11-09T04:51:11.265Z,13.89
2022-11-09T04:52:11.211Z,13.83
2022-11-09T04:53:11.153Z,13.87
2022-11-09T04:54:11.103Z,13.87
2022-11-09T04:55:11.051Z,13.84
2022-11-09T04:56:10.986Z,13.83
2022-11-09T04:57:10.938Z,13.87
2022-11-09T04:58:10.877Z,13.89
2022-11-09T04:59:10.820Z,13.87
2022-11-09T05:00:10.767Z,13.81
2022-11-09T05:01:10.726Z,13.83
2022-11-09T05:02:10.656Z,13.80
2022-11-09T05:03:10.599Z,13.84
2022-11-09T05:04:11.202Z,13.80
2022-11-09T05:05:10.598Z,13.83
2022-11-09T05:06:10.430Z,13.80
2022-11-09T05:07:10.432Z,13.87
2022-11-09T05:08:10.318Z,13.94
2022-11-09T05:09:10.268Z,13.84
2022-11-09T05:10:10.206Z,13.81
2022-11-09T05:11:10.158Z,13.81
2022-11-09T05:12:10.096Z,13.83
2022-11-09T05:13:10.041Z,13.87
2022-11-09T05:14:09.985Z,13.80
2022-11-09T05:15:09.932Z,13.83
2022-11-09T05:16:09.871Z,13.79
2022-11-09T05:17:09.818Z,13.81
2022-11-09T05:18:09.762Z,13.80
2022-11-09T05:19:09.706Z,13.80
2022-11-09T05:20:09.658Z,13.87
2022-11-09T05:21:09.595Z,13.80
2022-11-09T05:22:09.540Z,13.83
2022-11-09T05:23:09.483Z,13.84
2022-11-09T05:24:09.426Z,13.87
2022-11-09T05:25:09.372Z,13.87
2022-11-09T05:26:09.316Z,13.84
2022-11-09T05:27:09.270Z,13.87
2022-11-09T05:28:09.782Z,13.84
2022-11-09T05:29:09.151Z,13.83
2022-11-09T05:30:09.095Z,13.83
2022-11-09T05:31:09.038Z,13.89
2022-11-09T05:32:08.981Z,13.87
2022-11-09T05:33:08.929Z,13.81
2022-11-09T05:34:08.870Z,13.87
2022-11-09T05:35:08.815Z,13.83
2022-11-09T05:36:08.759Z,13.84
2022-11-09T05:37:08.704Z,13.88
2022-11-09T05:38:08.650Z,13.80
2022-11-09T05:39:08.595Z,13.80
2022-11-09T05:40:08.589Z,13.83
2022-11-09T05:41:08.483Z,13.83
2022-11-09T05:42:08.426Z,13.89
2022-11-09T05:43:08.376Z,13.87
2022-11-09T05:44:08.313Z,13.84
2022-11-09T05:45:40.225Z,13.88
2022-11-09T05:46:08.203Z,13.81
2022-11-09T05:47:08.147Z,13.77
2022-11-09T05:48:08.091Z,13.79
2022-11-09T05:49:08.043Z,13.83
2022-11-09T05:50:07.982Z,13.87
2022-11-09T05:51:07.925Z,13.88
2022-11-09T05:52:07.868Z,13.87
2022-11-09T05:53:07.814Z,13.92
2022-11-09T05:54:07.766Z,13.81
2022-11-09T05:55:07.703Z,13.81
2022-11-09T05:56:07.645Z,13.89
2022-11-09T05:57:09.131Z,13.83
2022-11-09T05:58:07.536Z,13.89
2022-11-09T05:59:07.484Z,13.80
2022-11-09T06:00:10.948Z,13.84
2022-11-09T06:01:07.373Z,13.81
2022-11-09T06:02:07.387Z,13.80
2022-11-09T06:03:07.257Z,13.88
2022-11-09T06:04:07.199Z,13.80
2022-11-09T06:05:07.147Z,13.83
2022-11-09T06:06:08.900Z,13.81
2022-11-09T06:07:07.088Z,13.88
2022-11-09T06:08:06.980Z,13.83
2022-11-09T06:09:06.923Z,13.79
2022-11-09T06:10:06.866Z,13.73
2022-11-09T06:11:06.812Z,13.88
2022-11-09T06:12:06.768Z,13.83
2022-11-09T06:13:06.703Z,13.88
2022-11-09T06:14:06.645Z,13.81
2022-11-09T06:15:06.619Z,13.81
2022-11-09T06:16:06.533Z,13.88
2022-11-09T06:17:06.480Z,13.81
2022-11-09T06:18:06.424Z,13.87
2022-11-09T06:19:06.367Z,13.91
2022-11-09T06:20:06.311Z,13.80
2022-11-09T06:21:06.255Z,13.83
2022-11-09T06:22:06.200Z,13.87
2022-11-09T06:23:06.142Z,13.88
2022-11-09T06:24:06.086Z,13.87
2022-11-09T06:25:06.042Z,13.84
2022-11-09T06:26:05.976Z,13.84
2022-11-09T06:27:05.924Z,13.77
2022-11-09T06:28:05.863Z,13.81
2022-11-09T06:29:05.812Z,13.87
2022-11-09T06:30:05.753Z,13.79
2022-11-09T06:31:05.703Z,13.84
2022-11-09T06:32:05.655Z,13.88
2022-11-09T06:33:05.590Z,13.81
2022-11-09T06:34:05.536Z,13.79
2022-11-09T06:35:05.475Z,13.89
2022-11-09T06:36:05.422Z,13.80
2022-11-09T06:37:05.364Z,13.87
2022-11-09T06:38:05.308Z,13.87
2022-11-09T06:39:05.260Z,13.92
2022-11-09T06:40:05.197Z,13.87
2022-11-09T06:41:05.141Z,13.91
2022-11-09T06:42:05.121Z,13.84
2022-11-09T06:43:05.031Z,13.87
2022-11-09T06:44:04.975Z,13.89
2022-11-09T06:45:04.920Z,13.83
2022-11-09T06:46:04.863Z,13.80
2022-11-09T06:47:04.817Z,13.80
2022-11-09T06:48:04.749Z,13.84
2022-11-09T06:49:04.700Z,13.88
2022-11-09T06:50:04.641Z,13.87
2022-11-09T06:51:04.584Z,13.87
2022-11-09T06:52:04.528Z,13.91
2022-11-09T06:53:04.476Z,13.91
2022-11-09T06:54:04.417Z,13.87
2022-11-09T06:55:04.362Z,13.79
2022-11-09T06:56:04.310Z,13.84
2022-11-09T06:57:04.254Z,13.84
2022-11-09T06:58:04.198Z,13.80
2022-11-09T06:59:04.142Z,13.87
2022-11-09T07:00:04.082Z,13.87
2022-11-09T07:01:04.100Z,13.81
2022-11-09T07:02:03.972Z,13.89
2022-11-09T07:03:03.921Z,13.81
2022-11-09T07:04:03.860Z,13.81
2022-11-09T07:05:03.808Z,13.91
2022-11-09T07:06:03.751Z,13.91
2022-11-09T07:07:03.739Z,13.81
2022-11-09T07:08:03.638Z,13.89
2022-11-09T07:09:03.584Z,13.87
2022-11-09T07:10:03.526Z,13.84
2022-11-09T07:11:03.480Z,13.87
2022-11-09T07:12:03.428Z,13.79
2022-11-09T07:13:03.391Z,13.87
2022-11-09T07:14:03.308Z,13.80
2022-11-09T07:15:03.254Z,13.87
2022-11-09T07:16:03.203Z,13.83
2022-11-09T07:17:03.153Z,13.88
2022-11-09T07:18:03.095Z,13.84
2022-11-09T07:19:03.165Z,13.83
2022-11-09T07:20:02.970Z,13.83
2022-11-09T07:21:02.915Z,13.89
2022-11-09T07:22:02.859Z,13.83
2022-11-09T07:23:02.805Z,13.87
2022-11-09T07:24:02.747Z,13.87
2022-11-09T07:25:02.694Z,13.87
2022-11-09T07:26:02.638Z,13.88
2022-11-09T07:27:02.585Z,13.87
2022-11-09T07:28:02.524Z,13.91
2022-11-09T07:29:02.472Z,13.87
2022-11-09T07:30:02.420Z,13.84
2022-11-09T07:31:02.358Z,13.87
2022-11-09T07:32:02.306Z,13.87
2022-11-09T07:33:20.657Z,13.88
2022-11-09T07:34:02.191Z,13.89
2022-11-09T07:35:02.141Z,13.84
2022-11-09T07:36:02.079Z,13.81
2022-11-09T07:37:02.028Z,13.81
2022-11-09T07:38:02.277Z,13.83
2022-11-09T07:39:01.917Z,13.87
2022-11-09T07:40:01.859Z,13.84
2022-11-09T07:41:01.801Z,13.81
2022-11-09T07:42:01.748Z,13.83
2022-11-09T07:43:01.696Z,13.84
2022-11-09T07:44:01.636Z,13.89
2022-11-09T07:45:01.681Z,13.87
2022-11-09T07:46:01.525Z,13.83
2022-11-09T07:47:01.469Z,13.87
2022-11-09T07:48:01.416Z,13.84
2022-11-09T07:49:01.355Z,13.88
2022-11-09T07:50:01.305Z,13.79
2022-11-09T07:51:01.253Z,13.84
2022-11-09T07:52:01.192Z,13.89
2022-11-09T07:53:01.135Z,13.84
2022-11-09T07:54:01.082Z,13.87
2022-11-09T07:55:01.023Z,13.81
2022-11-09T07:56:00.966Z,13.81
2022-11-09T07:57:00.912Z,13.88
2022-11-09T07:58:00.856Z,13.83
2022-11-09T07:59:00.799Z,13.83
2022-11-09T08:00:00.745Z,13.84
2022-11-09T08:01:00.690Z,13.87
2022-11-09T08:02:00.664Z,13.87
2022-11-09T08:03:00.576Z,13.92
2022-11-09T08:04:00.521Z,13.87
2022-11-09T08:05:00.472Z,13.87
2022-11-09T08:06:00.429Z,13.87
2022-11-09T08:07:00.528Z,13.80
2022-11-09T08:08:00.298Z,13.87
2022-11-09T08:09:00.244Z,13.83
2022-11-09T08:10:00.202Z,13.87
2022-11-09T08:11:00.129Z,13.84
2022-11-09T08:12:00.078Z,13.87
2022-11-09T08:13:00.022Z,13.87
2022-11-09T08:13:59.964Z,13.83
2022-11-09T08:14:59.907Z,13.91
2022-11-09T08:15:59.857Z,13.89
2022-11-09T08:16:59.795Z,13.84
2022-11-09T08:17:59.745Z,13.83
2022-11-09T08:18:59.688Z,13.87
2022-11-09T08:19:59.632Z,13.87
2022-11-09T08:20:59.573Z,13.87
2022-11-09T08:21:59.518Z,13.77
2022-11-09T08:23:03.603Z,13.81
2022-11-09T08:23:59.408Z,13.81
2022-11-09T08:24:59.351Z,13.81
2022-11-09T08:25:59.298Z,13.84
2022-11-09T08:26:59.240Z,13.84
2022-11-09T08:27:59.184Z,13.81
2022-11-09T08:28:59.127Z,13.83
2022-11-09T08:29:59.073Z,13.80
2022-11-09T08:30:59.017Z,13.87
2022-11-09T08:31:58.964Z,13.81
2022-11-09T08:32:58.905Z,13.79
2022-11-09T08:33:58.852Z,13.74
2022-11-09T08:34:58.792Z,13.91
2022-11-09T08:35:58.740Z,13.91
2022-11-09T08:36:58.684Z,13.81
2022-11-09T08:37:58.628Z,13.81
2022-11-09T08:38:58.577Z,13.76
2022-11-09T08:39:58.516Z,13.83
2022-11-09T08:40:58.530Z,13.81
2022-11-09T08:41:58.407Z,13.87
2022-11-09T08:42:58.351Z,13.83
2022-11-09T08:43:58.299Z,13.84
2022-11-09T08:44:58.238Z,13.81
2022-11-09T08:45:58.183Z,13.88
2022-11-09T08:46:58.126Z,13.89
2022-11-09T08:47:58.070Z,13.87
2022-11-09T08:48:58.015Z,13.89
2022-11-09T08:49:57.960Z,13.80
2022-11-09T08:50:57.902Z,13.83
2022-11-09T08:51:57.851Z,13.80
2022-11-09T08:52:57.792Z,13.84
2022-11-09T08:53:57.738Z,13.84
2022-11-09T08:54:57.685Z,13.94
2022-11-09T08:55:57.626Z,13.84
2022-11-09T08:56:57.572Z,13.81
2022-11-09T08:57:57.514Z,13.81
2022-11-09T08:58:57.459Z,13.96
2022-11-09T08:59:57.403Z,13.94
2022-11-09T09:00:57.348Z,13.88
2022-11-09T09:01:57.321Z,13.91
2022-11-09T09:02:57.235Z,13.87
2022-11-09T09:03:57.192Z,13.87
2022-11-09T09:04:57.128Z,13.95
2022-11-09T09:05:57.071Z,13.88
2022-11-09T09:06:57.064Z,13.88
2022-11-09T09:07:56.961Z,13.91
2022-11-09T09:08:56.901Z,13.94
2022-11-09T09:09:56.848Z,13.89
2022-11-09T09:10:56.796Z,13.84
2022-11-09T09:11:56.736Z,13.81
2022-11-09T09:12:56.680Z,13.84
2022-11-09T09:13:56.626Z,13.88
2022-11-09T09:14:56.573Z,13.88
2022-11-09T09:15:56.513Z,13.94
2022-11-09T09:16:56.457Z,13.83
2022-11-09T09:17:56.401Z,13.94
2022-11-09T09:18:56.345Z,13.89
2022-11-09T09:19:56.300Z,13.91
2022-11-09T09:20:56.235Z,13.88
2022-11-09T09:21:56.179Z,13.94
2022-11-09T09:22:56.123Z,13.94
2022-11-09T09:23:56.071Z,13.84
2022-11-09T09:24:56.013Z,13.94
2022-11-09T09:25:58.741Z,13.91
2022-11-09T09:26:55.908Z,13.89
2022-11-09T09:27:55.931Z,13.98
2022-11-09T09:28:55.789Z,13.89
2022-11-09T09:29:55.736Z,13.88
2022-11-09T09:30:55.677Z,13.92
2022-11-09T09:31:55.628Z,13.91
2022-11-09T09:32:55.570Z,13.92
2022-11-09T09:33:55.513Z,13.91
2022-11-09T09:34:55.456Z,13.91
2022-11-09T09:35:55.403Z,13.94
2022-11-09T09:36:55.345Z,13.94
2022-11-09T09:37:55.291Z,13.92
2022-11-09T09:38:55.232Z,13.91
2022-11-09T09:39:55.178Z,13.96
2022-11-09T09:40:55.123Z,13.91
2022-11-09T09:41:55.074Z,13.83
2022-11-09T09:42:55.016Z,13.89
2022-11-09T09:43:54.959Z,13.91
2022-11-09T09:44:54.899Z,13.94
2022-11-09T09:45:54.845Z,13.96
2022-11-09T09:46:54.786Z,13.91
2022-11-09T09:47:54.733Z,13.91
2022-11-09T09:48:54.677Z,13.87
2022-11-09T09:49:54.737Z,13.98
2022-11-09T09:50:54.564Z,13.99
2022-11-09T09:51:54.510Z,13.95
2022-11-09T09:53:22.235Z,13.94
2022-11-09T09:53:54.402Z,13.91
2022-11-09T09:54:54.345Z,13.92
2022-11-09T09:55:54.289Z,13.99
2022-11-09T09:56:54.233Z,13.94
2022-11-09T09:57:54.181Z,13.96
2022-11-09T09:58:54.128Z,14.01
2022-11-09T09:59:54.067Z,13.98
2022-11-09T10:00:54.009Z,14.07
2022-11-09T10:01:53.968Z,14.09
2022-11-09T10:02:53.900Z,14.01
2022-11-09T10:03:53.847Z,14.06
2022-11-09T10:04:53.904Z,14.09
2022-11-09T10:05:53.773Z,14.10
2022-11-09T10:06:53.721Z,14.14
2022-11-09T10:07:53.621Z,14.16
2022-11-09T10:08:53.568Z,14.13
2022-11-09T10:09:53.510Z,14.28
2022-11-09T10:10:53.455Z,14.28
2022-11-09T10:11:56.247Z,14.32
2022-11-09T10:12:53.343Z,14.32
2022-11-09T10:13:53.290Z,14.37
2022-11-09T10:14:53.237Z,14.35
2022-11-09T10:15:53.179Z,14.32
2022-11-09T10:16:53.121Z,14.34
2022-11-09T10:17:53.070Z,14.31
2022-11-09T10:18:53.008Z,14.32
2022-11-09T10:19:52.956Z,14.29
2022-11-09T10:20:53.228Z,14.27
2022-11-09T10:21:52.845Z,14.20
2022-11-09T10:22:52.788Z,14.21
2022-11-09T10:23:52.735Z,14.27
2022-11-09T10:25:18.391Z,14.24
2022-11-09T10:26:04.498Z,14.25
2022-11-09T10:26:52.568Z,14.24
2022-11-09T10:27:52.511Z,14.27
2022-11-09T10:29:15.022Z,14.21
2022-11-09T10:29:52.401Z,14.29
2022-11-09T10:30:52.393Z,14.27
2022-11-09T10:31:52.290Z,14.27
2022-11-09T10:32:52.235Z,14.29
2022-11-09T10:33:52.181Z,14.27
2022-11-09T10:34:52.122Z,14.24
2022-11-09T10:35:52.067Z,14.28
2022-11-09T10:36:52.011Z,14.20
2022-11-09T10:37:51.959Z,14.25
2022-11-09T10:38:51.907Z,14.27
2022-11-09T10:39:51.845Z,14.28
2022-11-09T10:40:51.788Z,14.24
2022-11-09T10:41:51.738Z,14.27
2022-11-09T10:42:51.680Z,14.21
2022-11-09T10:43:51.624Z,14.29
2022-11-09T10:44:51.570Z,14.19
2022-11-09T10:45:51.533Z,14.31
2022-11-09T10:46:51.463Z,14.24
2022-11-09T10:47:51.407Z,14.27
2022-11-09T10:48:51.344Z,14.21
2022-11-09T10:49:51.295Z,14.25
2022-11-09T10:50:51.239Z,14.20
2022-11-09T10:51:51.179Z,14.20
2022-11-09T10:52:51.125Z,14.29
2022-11-09T10:53:51.070Z,14.25
2022-11-09T10:54:51.013Z,14.21
2022-11-09T10:55:50.960Z,14.28
2022-11-09T10:57:05.666Z,14.24
2022-11-09T10:57:50.851Z,14.32
2022-11-09T10:58:50.795Z,14.28
2022-11-09T10:59:50.739Z,14.19
2022-11-09T11:00:50.682Z,14.27
2022-11-09T11:01:50.670Z,14.25
2022-11-09T11:02:50.574Z,14.27
2022-11-09T11:03:50.516Z,14.28
2022-11-09T11:04:50.458Z,14.21
2022-11-09T11:05:50.405Z,14.25
2022-11-09T11:06:50.463Z,14.34
2022-11-09T11:07:50.296Z,14.28
2022-11-09T11:08:50.237Z,14.21
2022-11-09T11:09:50.185Z,14.27
2022-11-09T11:10:58.515Z,14.37
2022-11-09T11:11:50.073Z,14.21
2022-11-09T11:12:50.015Z,14.27
2022-11-09T11:13:49.964Z,14.24
2022-11-09T11:14:49.908Z,14.25
2022-11-09T11:15:49.849Z,14.27
2022-11-09T11:16:49.794Z,14.24
2022-11-09T11:17:49.740Z,14.31
2022-11-09T11:18:49.690Z,14.28
2022-11-09T11:19:49.629Z,14.27
2022-11-09T11:20:49.573Z,14.35
2022-11-09T11:21:49.520Z,14.28
2022-11-09T11:22:50.256Z,14.31
2022-11-09T11:23:49.409Z,14.27
2022-11-09T11:24:49.353Z,14.31
2022-11-09T11:25:49.299Z,14.34
2022-11-09T11:26:49.240Z,14.35
2022-11-09T11:27:49.190Z,14.29
2022-11-09T11:28:49.131Z,14.35
2022-11-09T11:29:49.078Z,14.37
2022-11-09T11:30:49.021Z,14.34
2022-11-09T11:31:48.965Z,14.32
2022-11-09T11:32:50.646Z,14.31
2022-11-09T11:33:48.858Z,14.29
2022-11-09T11:35:03.437Z,14.31
2022-11-09T11:35:48.755Z,14.34
2022-11-09T11:36:48.689Z,14.34
2022-11-09T11:37:48.637Z,14.35
2022-11-09T11:38:48.580Z,14.32
2022-11-09T11:39:48.522Z,14.31
2022-11-09T11:40:48.469Z,14.31
2022-11-09T11:41:48.412Z,14.32
2022-11-09T11:42:48.357Z,14.31
2022-11-09T11:43:48.300Z,14.31
2022-11-09T11:44:54.847Z,14.37
2022-11-09T11:45:48.191Z,14.35
2022-11-09T11:46:48.133Z,14.39
2022-11-09T11:47:48.080Z,14.42
2022-11-09T11:48:48.026Z,14.37
2022-11-09T11:49:47.970Z,14.31
2022-11-09T11:50:47.928Z,14.35
2022-11-09T11:51:47.860Z,14.31
2022-11-09T11:52:47.806Z,14.35
2022-11-09T11:53:47.750Z,14.32
2022-11-09T11:54:47.692Z,14.35
2022-11-09T11:55:47.644Z,14.32
2022-11-09T11:56:47.581Z,14.37
2022-11-09T11:57:47.526Z,14.39
2022-11-09T11:58:47.473Z,14.31
2022-11-09T11:59:47.417Z,14.34
2022-11-09T12:00:47.360Z,14.32
2022-11-09T12:01:47.304Z,14.32
2022-11-09T12:02:47.297Z,14.31
2022-11-09T12:03:50.540Z,14.38
2022-11-09T12:04:47.140Z,14.34
2022-11-09T12:05:47.082Z,14.35
2022-11-09T12:06:47.090Z,14.35
2022-11-09T12:07:46.972Z,14.31
2022-11-09T12:08:46.919Z,14.31
2022-11-09T12:09:46.862Z,14.35
2022-11-09T12:10:46.806Z,14.34
2022-11-09T12:11:46.751Z,14.32
2022-11-09T12:12:46.697Z,14.34
2022-11-09T12:13:49.662Z,14.31
2022-11-09T12:14:46.587Z,14.42
2022-11-09T12:15:46.535Z,14.32
2022-11-09T12:16:46.478Z,14.38
2022-11-09T12:17:46.418Z,14.42
2022-11-09T12:18:46.366Z,14.44
2022-11-09T12:19:46.307Z,14.32
2022-11-09T12:20:46.255Z,14.35
2022-11-09T12:21:46.197Z,14.42
2022-11-09T12:22:46.151Z,14.34
2022-11-09T12:23:46.086Z,14.38
2022-11-09T12:24:46.035Z,14.43
2022-11-09T12:25:45.975Z,14.44
2022-11-09T12:26:46.491Z,14.38
2022-11-09T12:27:45.865Z,14.44
2022-11-09T12:28:45.813Z,14.44
2022-11-09T12:29:45.761Z,14.46
2022-11-09T12:30:45.701Z,14.35
2022-11-09T12:31:45.644Z,14.38
2022-11-09T12:32:45.592Z,14.39
2022-11-09T12:33:45.534Z,14.39
2022-11-09T12:34:45.478Z,14.44
2022-11-09T12:35:45.491Z,14.42
2022-11-09T12:36:45.369Z,14.42
2022-11-09T12:37:45.312Z,14.44
2022-11-09T12:38:45.325Z,14.38
2022-11-09T12:39:45.201Z,14.37
2022-11-09T12:40:45.149Z,14.39
2022-11-09T12:41:45.090Z,14.43
2022-11-09T12:42:45.037Z,14.42
2022-11-09T12:43:44.979Z,14.42
2022-11-09T12:44:44.927Z,14.38
2022-11-09T12:45:44.870Z,14.37
2022-11-09T12:46:44.817Z,14.42
2022-11-09T12:47:44.758Z,14.42
2022-11-09T12:48:44.709Z,14.39
2022-11-09T12:49:44.655Z,14.43
2022-11-09T12:50:44.596Z,14.38
2022-11-09T12:51:44.537Z,14.39